This is the latest recevied weather packets stored in our database for station/object N1TKS. If no packets are shown the sender has not sent any weather packets the latest 10 day(s).
| Time | Temp. | Humidity | Pressure | Rain* | Wind** | Luminosity | Snow |
|---|---|---|---|---|---|---|---|
| 1777938714 | 15.56° C | 70% | 1009.9 hPa | 0 mm | - | - | - |
| 1777938580 | 15.56° C | 69% | 1009.9 hPa | 0 mm | - | - | - |
| 1777938414 | 15.56° C | 69% | 1009.9 hPa | 0 mm | - | - | - |
| 1777936915 | 16.11° C | 66% | 1009.7 hPa | 0 mm | - | - | - |
| 1777936616 | 16.67° C | 66% | 1009.6 hPa | 0 mm | - | - | - |
| 1777936404 | 17.22° C | 59% | 1009.4 hPa | 0 mm | - | - | - |
| 1777936015 | 16.67° C | 64% | 1009.5 hPa | 0 mm | - | - | - |
| 1777934559 | 17.22° C | 59% | 1009.4 hPa | 0 mm | - | - | - |
| 1777934516 | 17.22° C | 59% | 1009.4 hPa | 0 mm | - | - | - |
| 1777934215 | 17.78° C | 59% | 1009.4 hPa | 0 mm | - | - | - |
| 1777933915 | 17.78° C | 58% | 1009.4 hPa | 0 mm | - | - | - |
| 1777933614 | 17.78° C | 58% | 1009.4 hPa | 0 mm | - | - | - |
| 1777933395 | 17.78° C | 57% | 1009.5 hPa | 0 mm | - | - | - |
| 1777933316 | 17.78° C | 57% | 1009.5 hPa | 0 mm | - | - | - |
| 1777933015 | 18.33° C | 56% | 1009.6 hPa | 0 mm | - | - | - |
| 1777932413 | 18.33° C | 55% | 1009.7 hPa | 0 mm | - | - | - |
| 1777931814 | 18.89° C | 54% | 1009.7 hPa | 0 mm | - | - | - |
| 1777931515 | 18.89° C | 54% | 1009.7 hPa | 0 mm | - | - | - |
| 1777930654 | 19.44° C | 52% | 1009.7 hPa | 0 mm | - | - | - |
| 1777930618 | 19.44° C | 52% | 1009.7 hPa | 0 mm | - | - | - |
| 1777929714 | 19.44° C | 51% | 1009.7 hPa | 0 mm | - | - | - |
| 1777929414 | 19.44° C | 51% | 1009.8 hPa | 0 mm | - | - | - |
| 1777929118 | 19.44° C | 51% | 1009.8 hPa | 0 mm | - | - | - |
| 1777928820 | 19.44° C | 51% | 1009.8 hPa | 0 mm | - | - | - |
| 1777928737 | 19.44° C | 51% | 1009.7 hPa | 0 mm | - | - | - |
* Rain latest hour (hover to see other rain measurements)
** Current wind speed in m/s (hover to see current wind gust speed)